Terminal Aerodrome Forecast
Issued by NWS

Home | Current Version | Previous Version | Text Only | Print | Product List | Glossary On
Versions: 1 2 3 4 5 6 7 8 9 10 11 12 13
000
FTUS46 KSTO 301100
TAFRBL
TAF
KRBL 301120Z 3012/3112 33005KT P6SM BKN200
     FM302000 16008KT P6SM BKN200
     FM311000 16012KT P6SM VCSH BKN050=

USA.gov is the U.S. government's official web portal to all federal, state and local government web resources and services.